createdAt,value
2017-04-18T00:01:15.565Z,21.7
2017-04-18T00:02:15.788Z,21.72
2017-04-18T00:03:15.725Z,21.72
2017-04-18T00:04:15.360Z,21.66
2017-04-18T00:05:15.605Z,21.73
2017-04-18T00:06:15.565Z,21.73
2017-04-18T00:07:15.189Z,21.75
2017-04-18T00:08:15.406Z,21.72
2017-04-18T00:09:15.343Z,21.64
2017-04-18T00:10:15.276Z,21.75
2017-04-18T00:11:15.488Z,21.67
2017-04-18T00:12:15.150Z,21.72
2017-04-18T00:13:15.087Z,21.72
2017-04-18T00:14:15.025Z,21.66
2017-04-18T00:15:14.957Z,21.64
2017-04-18T00:16:14.595Z,21.66
2017-04-18T00:17:14.535Z,21.72
2017-04-18T00:18:14.769Z,21.75
2017-04-18T00:19:14.710Z,21.62
2017-04-18T00:20:14.642Z,21.62
2017-04-18T00:21:14.580Z,21.62
2017-04-18T00:22:14.513Z,21.76
2017-04-18T00:23:14.455Z,21.69
2017-04-18T00:24:14.386Z,21.66
2017-04-18T00:25:14.323Z,21.66
2017-04-18T00:26:13.953Z,21.62
2017-04-18T00:27:14.192Z,21.76
2017-04-18T00:28:14.136Z,21.64
2017-04-18T00:29:14.065Z,21.64
2017-04-18T00:30:14.002Z,21.7
2017-04-18T00:31:13.938Z,21.67
2017-04-18T00:32:13.878Z,21.7
2017-04-18T00:33:13.811Z,21.69
2017-04-18T00:34:13.746Z,21.72
2017-04-18T00:35:13.683Z,21.66
2017-04-18T00:36:13.619Z,21.69
2017-04-18T00:37:13.553Z,21.62
2017-04-18T00:38:13.495Z,21.72
2017-04-18T00:39:13.430Z,21.64
2017-04-18T00:40:13.367Z,21.67
2017-04-18T00:41:13.301Z,21.67
2017-04-18T00:42:13.236Z,21.66
2017-04-18T00:43:13.176Z,21.64
2017-04-18T00:44:13.112Z,21.69
2017-04-18T00:45:13.048Z,21.64
2017-04-18T00:46:12.982Z,21.66
2017-04-18T00:47:12.918Z,21.77
2017-04-18T00:48:12.857Z,21.69
2017-04-18T00:49:12.792Z,21.76
2017-04-18T00:50:12.732Z,21.75
2017-04-18T00:51:12.666Z,21.66
2017-04-18T00:52:12.600Z,21.72
2017-04-18T00:53:12.543Z,21.72
2017-04-18T00:54:12.172Z,21.73
2017-04-18T00:55:12.407Z,21.67
2017-04-18T00:56:12.343Z,21.62
2017-04-18T00:57:12.278Z,21.67
2017-04-18T00:58:11.914Z,21.76
2017-04-18T00:59:12.227Z,21.76
2017-04-18T01:00:12.091Z,21.69
2017-04-18T01:01:12.027Z,21.73
2017-04-18T01:02:11.662Z,21.67
2017-04-18T01:03:11.899Z,21.77
2017-04-18T01:04:11.834Z,21.75
2017-04-18T01:05:11.468Z,21.75
2017-04-18T01:06:11.706Z,21.76
2017-04-18T01:07:11.647Z,21.72
2017-04-18T01:08:11.277Z,21.67
2017-04-18T01:09:11.516Z,21.73
2017-04-18T01:10:11.453Z,21.69
2017-04-18T01:11:11.446Z,21.69
2017-04-18T01:12:11.334Z,21.72
2017-04-18T01:13:11.284Z,21.72
2017-04-18T01:14:10.905Z,21.73
2017-04-18T01:15:11.142Z,21.67
2017-04-18T01:16:11.072Z,21.75
2017-04-18T01:17:11.004Z,21.66
2017-04-18T01:18:10.942Z,21.76
2017-04-18T01:19:10.879Z,21.67
2017-04-18T01:20:10.813Z,21.77
2017-04-18T01:21:10.750Z,21.76
2017-04-18T01:22:10.386Z,21.72
2017-04-18T01:23:10.623Z,21.7
2017-04-18T01:24:10.680Z,21.77
2017-04-18T01:25:10.500Z,21.62
2017-04-18T01:26:10.128Z,21.66
2017-04-18T01:27:10.366Z,21.64
2017-04-18T01:28:10.302Z,21.66
2017-04-18T01:29:10.241Z,21.69
2017-04-18T01:30:09.874Z,21.77
2017-04-18T01:31:10.112Z,21.75
2017-04-18T01:32:10.052Z,21.73
2017-04-18T01:33:09.988Z,21.76
2017-04-18T01:34:09.625Z,21.64
2017-04-18T01:35:09.859Z,21.67
2017-04-18T01:36:09.796Z,21.67
2017-04-18T01:37:09.730Z,21.72
2017-04-18T01:38:09.671Z,21.7
2017-04-18T01:39:09.601Z,21.76
2017-04-18T01:40:09.543Z,21.7
2017-04-18T01:41:09.475Z,21.73
2017-04-18T01:42:09.413Z,21.69
2017-04-18T01:43:09.350Z,21.73
2017-04-18T01:44:09.287Z,21.61
2017-04-18T01:45:09.219Z,21.67
2017-04-18T01:46:09.155Z,21.72
2017-04-18T01:47:09.091Z,21.75
2017-04-18T01:48:09.031Z,21.72
2017-04-18T01:49:08.968Z,21.75
2017-04-18T01:50:08.910Z,21.73
2017-04-18T01:51:08.838Z,21.7
2017-04-18T01:52:08.477Z,21.7
2017-04-18T01:53:08.710Z,21.72
2017-04-18T01:54:08.647Z,21.62
2017-04-18T01:55:08.583Z,21.73
2017-04-18T01:56:08.518Z,21.79
2017-04-18T01:57:08.453Z,21.61
2017-04-18T01:58:08.580Z,21.76
2017-04-18T01:59:08.331Z,21.75
2017-04-18T02:00:07.962Z,21.76
2017-04-18T02:01:08.202Z,21.72
2017-04-18T02:02:07.839Z,21.67
2017-04-18T02:03:08.071Z,21.72
2017-04-18T02:04:08.009Z,21.76
2017-04-18T02:05:07.644Z,21.72
2017-04-18T02:06:08.154Z,21.73
2017-04-18T02:07:07.517Z,21.7
2017-04-18T02:08:07.757Z,21.72
2017-04-18T02:09:07.697Z,21.75
2017-04-18T02:10:07.331Z,21.73
2017-04-18T02:11:07.564Z,21.73
2017-04-18T02:12:07.497Z,21.77
2017-04-18T02:13:07.435Z,21.79
2017-04-18T02:14:07.404Z,21.75
2017-04-18T02:15:07.307Z,21.72
2017-04-18T02:16:06.947Z,21.76
2017-04-18T02:17:07.180Z,21.72
2017-04-18T02:18:07.117Z,21.76
2017-04-18T02:19:07.051Z,21.73
2017-04-18T02:20:06.987Z,21.66
2017-04-18T02:21:06.928Z,21.67
2017-04-18T02:22:06.570Z,21.7
2017-04-18T02:23:06.799Z,21.75
2017-04-18T02:24:06.735Z,21.73
2017-04-18T02:25:06.672Z,21.73
2017-04-18T02:26:06.612Z,21.73
2017-04-18T02:27:06.240Z,21.64
2017-04-18T02:28:06.477Z,21.76
2017-04-18T02:29:06.416Z,21.67
2017-04-18T02:30:06.350Z,21.7
2017-04-18T02:31:05.987Z,21.76
2017-04-18T02:32:06.224Z,21.73
2017-04-18T02:33:06.164Z,21.69
2017-04-18T02:34:05.796Z,21.7
2017-04-18T02:35:05.743Z,21.75
2017-04-18T02:36:05.967Z,21.7
2017-04-18T02:37:05.922Z,21.72
2017-04-18T02:38:05.856Z,21.79
2017-04-18T02:39:05.780Z,21.73
2017-04-18T02:40:05.716Z,21.72
2017-04-18T02:41:05.649Z,21.77
2017-04-18T02:42:05.588Z,21.75
2017-04-18T02:43:05.521Z,21.79
2017-04-18T02:44:05.457Z,21.73
2017-04-18T02:45:05.392Z,21.73
2017-04-18T02:46:05.329Z,21.73
2017-04-18T02:47:04.964Z,21.76
2017-04-18T02:48:05.202Z,21.75
2017-04-18T02:49:05.144Z,21.73
2017-04-18T02:50:05.076Z,21.75
2017-04-18T02:51:05.041Z,21.7
2017-04-18T02:52:04.951Z,21.79
2017-04-18T02:53:04.893Z,21.7
2017-04-18T02:54:04.829Z,21.76
2017-04-18T02:55:04.835Z,21.79
2017-04-18T02:56:04.695Z,21.77
2017-04-18T02:57:04.633Z,21.72
2017-04-18T02:58:04.566Z,21.75
2017-04-18T02:59:04.507Z,21.77
2017-04-18T03:00:04.441Z,21.73
2017-04-18T03:01:04.379Z,21.7
2017-04-18T03:02:04.325Z,21.79
2017-04-18T03:03:04.291Z,21.73
2017-04-18T03:04:04.186Z,21.69
2017-04-18T03:05:04.141Z,21.76
2017-04-18T03:06:03.768Z,21.77
2017-04-18T03:07:03.991Z,21.69
2017-04-18T03:08:03.929Z,21.77
2017-04-18T03:09:03.863Z,21.75
2017-04-18T03:10:03.817Z,21.77
2017-04-18T03:11:03.743Z,21.72
2017-04-18T03:12:03.674Z,21.77
2017-04-18T03:13:03.609Z,21.76
2017-04-18T03:14:03.549Z,21.73
2017-04-18T03:15:03.498Z,21.69
2017-04-18T03:16:03.417Z,21.76
2017-04-18T03:17:03.356Z,21.76
2017-04-18T03:18:03.290Z,21.69
2017-04-18T03:19:03.229Z,21.72
2017-04-18T03:20:03.166Z,21.77
2017-04-18T03:21:03.100Z,21.73
2017-04-18T03:22:03.037Z,21.72
2017-04-18T03:23:02.976Z,21.73
2017-04-18T03:24:02.946Z,21.66
2017-04-18T03:25:02.847Z,21.7
2017-04-18T03:26:02.782Z,21.64
2017-04-18T03:27:02.741Z,21.73
2017-04-18T03:28:02.662Z,21.75
2017-04-18T03:29:02.597Z,21.73
2017-04-18T03:30:02.533Z,21.75
2017-04-18T03:31:02.469Z,21.7
2017-04-18T03:32:02.399Z,21.73
2017-04-18T03:33:02.353Z,21.73
2017-04-18T03:34:02.277Z,21.67
2017-04-18T03:35:02.209Z,21.72
2017-04-18T03:36:02.313Z,21.76
2017-04-18T03:37:02.083Z,21.79
2017-04-18T03:38:02.031Z,21.77
2017-04-18T03:39:01.977Z,21.73
2017-04-18T03:40:01.906Z,21.76
2017-04-18T03:41:01.538Z,21.76
2017-04-18T03:42:01.767Z,21.7
2017-04-18T03:43:01.718Z,21.77
2017-04-18T03:44:01.660Z,21.64
2017-04-18T03:45:01.585Z,21.75
2017-04-18T03:46:01.535Z,21.69
2017-04-18T03:47:01.162Z,21.7
2017-04-18T03:48:01.381Z,21.69
2017-04-18T03:49:01.318Z,21.64
2017-04-18T03:50:01.283Z,21.67
2017-04-18T03:51:01.190Z,21.66
2017-04-18T03:52:01.128Z,21.77
2017-04-18T03:53:01.085Z,21.69
2017-04-18T03:54:01.010Z,21.66
2017-04-18T03:55:00.940Z,21.66
2017-04-18T03:56:00.883Z,21.76
2017-04-18T03:57:00.803Z,21.7
2017-04-18T03:58:00.746Z,21.72
2017-04-18T03:59:00.683Z,21.79
2017-04-18T04:00:00.617Z,21.76
2017-04-18T04:01:00.562Z,21.73
2017-04-18T04:02:00.485Z,21.72
2017-04-18T04:03:00.423Z,21.76
2017-04-18T04:04:00.357Z,21.72
2017-04-18T04:04:59.992Z,21.73
2017-04-18T04:06:00.245Z,21.72
2017-04-18T04:07:00.171Z,21.67
2017-04-18T04:08:00.108Z,21.69
2017-04-18T04:09:00.050Z,21.67
2017-04-18T04:09:59.981Z,21.7
2017-04-18T04:10:59.911Z,21.66
2017-04-18T04:11:59.852Z,21.61
2017-04-18T04:12:59.785Z,21.67
2017-04-18T04:13:59.719Z,21.67
2017-04-18T04:14:59.359Z,21.72
2017-04-18T04:15:59.592Z,21.67
2017-04-18T04:16:59.528Z,21.66
2017-04-18T04:17:59.471Z,21.67
2017-04-18T04:18:59.100Z,21.61
2017-04-18T04:19:59.341Z,21.62
2017-04-18T04:20:59.273Z,21.57
2017-04-18T04:21:59.212Z,21.58
2017-04-18T04:22:59.148Z,21.66
2017-04-18T04:23:59.090Z,21.6
2017-04-18T04:24:59.021Z,21.62
2017-04-18T04:25:59.059Z,21.62
2017-04-18T04:26:58.895Z,21.6
2017-04-18T04:27:58.836Z,21.55
2017-04-18T04:28:58.768Z,21.55
2017-04-18T04:29:58.703Z,21.62
2017-04-18T04:30:58.336Z,21.64
2017-04-18T04:31:58.271Z,21.62
2017-04-18T04:32:58.513Z,21.6
2017-04-18T04:33:58.466Z,21.61
2017-04-18T04:34:58.380Z,21.61
2017-04-18T04:35:58.318Z,21.58
2017-04-18T04:36:58.255Z,21.55
2017-04-18T04:37:57.890Z,21.58
2017-04-18T04:38:58.125Z,21.58
2017-04-18T04:39:58.062Z,21.5
2017-04-18T04:40:58.000Z,21.5
2017-04-18T04:41:57.941Z,21.48
2017-04-18T04:42:57.876Z,21.46
2017-04-18T04:43:57.812Z,21.48
2017-04-18T04:44:57.774Z,21.58
2017-04-18T04:45:57.680Z,21.46
2017-04-18T04:46:57.320Z,21.57
2017-04-18T04:47:57.553Z,21.58
2017-04-18T04:48:57.187Z,21.45
2017-04-18T04:49:57.125Z,21.46
2017-04-18T04:50:57.562Z,21.48
2017-04-18T04:51:57.307Z,21.46
2017-04-18T04:52:57.233Z,21.54
2017-04-18T04:53:57.167Z,21.55
2017-04-18T04:54:57.102Z,21.55
2017-04-18T04:55:56.735Z,21.5
2017-04-18T04:56:56.975Z,21.51
2017-04-18T04:57:56.306Z,21.5
2017-04-18T04:58:56.846Z,21.39
2017-04-18T04:59:56.780Z,21.52
2017-04-18T05:00:56.723Z,21.46
2017-04-18T05:01:56.657Z,21.5
2017-04-18T05:02:56.594Z,21.45
2017-04-18T05:03:56.528Z,21.43
2017-04-18T05:04:56.168Z,21.46
2017-04-18T05:05:56.400Z,21.45
2017-04-18T05:06:56.338Z,21.52
2017-04-18T05:07:55.966Z,21.46
2017-04-18T05:08:56.208Z,21.43
2017-04-18T05:09:56.143Z,21.45
2017-04-18T05:10:56.077Z,21.5
2017-04-18T05:11:56.017Z,21.45
2017-04-18T05:12:55.951Z,21.5
2017-04-18T05:13:55.588Z,21.48
2017-04-18T05:14:55.824Z,21.4
2017-04-18T05:15:55.765Z,21.48
2017-04-18T05:16:55.695Z,21.46
2017-04-18T05:17:55.635Z,21.48
2017-04-18T05:18:55.570Z,21.45
2017-04-18T05:19:55.504Z,21.43
2017-04-18T05:20:55.440Z,21.46
2017-04-18T05:21:55.379Z,21.43
2017-04-18T05:22:55.309Z,21.42
2017-04-18T05:23:55.252Z,21.46
2017-04-18T05:24:55.185Z,21.46
2017-04-18T05:25:55.116Z,21.45
2017-04-18T05:26:55.053Z,21.43
2017-04-18T05:27:54.989Z,21.42
2017-04-18T05:28:55.326Z,21.45
2017-04-18T05:29:54.865Z,21.45
2017-04-18T05:30:54.497Z,21.4
2017-04-18T05:31:54.742Z,21.42
2017-04-18T05:32:54.673Z,21.42
2017-04-18T05:33:54.606Z,21.42
2017-04-18T05:34:54.539Z,21.4
2017-04-18T05:35:54.477Z,21.43
2017-04-18T05:36:54.412Z,21.4
2017-04-18T05:37:54.352Z,21.43
2017-04-18T05:38:54.285Z,21.39
2017-04-18T05:39:54.219Z,21.42
2017-04-18T05:40:54.191Z,21.46
2017-04-18T05:41:54.090Z,21.4
2017-04-18T05:42:54.030Z,21.45
2017-04-18T05:43:53.662Z,21.37
2017-04-18T05:44:53.604Z,21.37
2017-04-18T05:45:53.835Z,21.39
2017-04-18T05:46:53.780Z,21.36
2017-04-18T05:47:53.711Z,21.42
2017-04-18T05:48:53.652Z,21.36
2017-04-18T05:49:53.580Z,21.35
2017-04-18T05:50:53.522Z,21.4
2017-04-18T05:51:53.564Z,21.42
2017-04-18T05:52:53.091Z,21.37
2017-04-18T05:53:53.323Z,21.37
2017-04-18T05:54:53.263Z,21.39
2017-04-18T05:55:53.197Z,21.36
2017-04-18T05:56:53.133Z,21.39
2017-04-18T05:57:53.068Z,21.33
2017-04-18T05:58:53.003Z,21.35
2017-04-18T05:59:52.941Z,21.25
2017-04-18T06:00:52.876Z,21.36
2017-04-18T06:01:52.528Z,21.32
2017-04-18T06:02:52.755Z,21.35
2017-04-18T06:03:52.688Z,21.36
2017-04-18T06:04:52.634Z,21.33
2017-04-18T06:05:52.552Z,21.32
2017-04-18T06:06:52.529Z,21.32
2017-04-18T06:07:52.442Z,21.37
2017-04-18T06:08:52.364Z,21.27
2017-04-18T06:09:52.302Z,21.37
2017-04-18T06:10:51.940Z,21.35
2017-04-18T06:11:52.171Z,21.33
2017-04-18T06:12:52.114Z,21.3
2017-04-18T06:13:52.043Z,21.29
2017-04-18T06:14:51.976Z,21.3
2017-04-18T06:15:51.912Z,21.32
2017-04-18T06:16:51.848Z,21.37
2017-04-18T06:17:51.786Z,21.25
2017-04-18T06:18:51.724Z,21.32
2017-04-18T06:19:51.355Z,21.29
2017-04-18T06:20:51.591Z,21.27
2017-04-18T06:21:51.527Z,21.35
2017-04-18T06:22:51.677Z,21.32
2017-04-18T06:23:51.400Z,21.36
2017-04-18T06:24:51.417Z,21.27
2017-04-18T06:25:51.271Z,21.39
2017-04-18T06:26:51.215Z,21.3
2017-04-18T06:27:51.145Z,21.3
2017-04-18T06:28:50.778Z,21.35
2017-04-18T06:29:51.017Z,21.3
2017-04-18T06:30:50.948Z,21.36
2017-04-18T06:31:50.889Z,21.3
2017-04-18T06:32:50.823Z,21.36
2017-04-18T06:33:50.759Z,21.3
2017-04-18T06:34:50.693Z,21.35
2017-04-18T06:35:50.629Z,21.27
2017-04-18T06:36:50.566Z,21.3
2017-04-18T06:37:50.508Z,21.3
2017-04-18T06:38:50.438Z,21.3
2017-04-18T06:39:50.377Z,21.33
2017-04-18T06:40:50.308Z,21.3
2017-04-18T06:41:49.640Z,21.33
2017-04-18T06:42:50.180Z,21.3
2017-04-18T06:43:50.117Z,21.3
2017-04-18T06:44:49.756Z,21.37
2017-04-18T06:45:49.991Z,21.25
2017-04-18T06:46:49.622Z,21.29
2017-04-18T06:47:49.861Z,21.3
2017-04-18T06:48:49.803Z,21.24
2017-04-18T06:49:49.732Z,21.3
2017-04-18T06:50:49.669Z,21.35
2017-04-18T06:51:49.011Z,21.25
2017-04-18T06:52:49.547Z,21.35
2017-04-18T06:53:49.491Z,21.3
2017-04-18T06:54:49.414Z,21.32
2017-04-18T06:55:49.345Z,21.25
2017-04-18T06:56:49.290Z,21.25
2017-04-18T06:57:49.218Z,21.3
2017-04-18T06:58:48.859Z,21.29
2017-04-18T06:59:49.093Z,21.33
2017-04-18T07:00:49.024Z,21.29
2017-04-18T07:01:48.361Z,21.24
2017-04-18T07:02:48.651Z,21.21
2017-04-18T07:03:48.838Z,21.3
2017-04-18T07:04:48.971Z,21.22
2017-04-18T07:05:49.263Z,21.32
2017-04-18T07:06:49.062Z,21.27
2017-04-18T07:07:48.609Z,21.3
2017-04-18T07:08:48.423Z,21.3
2017-04-18T07:09:48.447Z,21.24
2017-04-18T07:10:48.484Z,21.3
2017-04-18T07:11:47.713Z,21.29
2017-04-18T07:12:47.656Z,21.24
2017-04-18T07:13:48.190Z,21.21
2017-04-18T07:14:47.829Z,21.27
2017-04-18T07:15:48.210Z,21.25
2017-04-18T07:16:47.996Z,21.32
2017-04-18T07:17:47.934Z,21.22
2017-04-18T07:18:47.871Z,21.21
2017-04-18T07:19:47.837Z,21.22
2017-04-18T07:20:47.843Z,21.33
2017-04-18T07:21:47.375Z,21.27
2017-04-18T07:22:47.021Z,21.27
2017-04-18T07:23:47.255Z,21.25
2017-04-18T07:24:47.484Z,21.29
2017-04-18T07:25:47.424Z,21.27
2017-04-18T07:26:47.358Z,21.29
2017-04-18T07:27:47.291Z,21.25
2017-04-18T07:28:46.633Z,21.24
2017-04-18T07:29:47.166Z,21.24
2017-04-18T07:30:46.795Z,21.22
2017-04-18T07:31:47.038Z,21.25
2017-04-18T07:32:46.368Z,21.3
2017-04-18T07:33:46.302Z,21.24
2017-04-18T07:34:46.239Z,21.24
2017-04-18T07:35:46.482Z,21.29
2017-04-18T07:36:46.410Z,21.25
2017-04-18T07:37:46.355Z,21.29
2017-04-18T07:38:46.283Z,21.24
2017-04-18T07:39:46.529Z,21.21
2017-04-18T07:40:46.457Z,21.24
2017-04-18T07:41:45.787Z,21.27
2017-04-18T07:42:45.873Z,21.27
2017-04-18T07:43:45.968Z,21.3
2017-04-18T07:44:45.592Z,21.22
2017-04-18T07:45:45.531Z,21.21
2017-04-18T07:46:45.773Z,21.24
2017-04-18T07:47:45.705Z,21.22
2017-04-18T07:48:45.945Z,21.3
2017-04-18T07:49:45.889Z,21.24
2017-04-18T07:50:45.816Z,21.21
2017-04-18T07:51:45.445Z,21.24
2017-04-18T07:52:45.422Z,21.25
2017-04-18T07:53:45.025Z,21.22
2017-04-18T07:54:45.563Z,21.3
2017-04-18T07:55:45.625Z,21.22
2017-04-18T07:56:45.447Z,21.22
2017-04-18T07:57:45.066Z,21.25
2017-04-18T07:58:45.000Z,21.21
2017-04-18T07:59:44.684Z,21.2
2017-04-18T08:00:45.127Z,21.24
2017-04-18T08:01:44.804Z,21.25
2017-04-18T08:02:45.045Z,21.24
2017-04-18T08:03:44.678Z,21.22
2017-04-18T08:04:44.615Z,21.24
2017-04-18T08:05:44.652Z,21.2
2017-04-18T08:06:44.827Z,21.22
2017-04-18T08:07:44.421Z,21.25
2017-04-18T08:08:44.659Z,21.2
2017-04-18T08:09:44.294Z,21.24
2017-04-18T08:10:44.329Z,21.22
2017-04-18T08:11:44.469Z,21.2
2017-04-18T08:12:44.412Z,21.15
2017-04-18T08:13:44.054Z,21.18
2017-04-18T08:14:44.273Z,21.2
2017-04-18T08:15:44.310Z,21.2
2017-04-18T08:16:43.843Z,21.2
2017-04-18T08:17:43.783Z,21.18
2017-04-18T08:18:44.025Z,21.17
2017-04-18T08:19:43.657Z,21.17
2017-04-18T08:20:43.785Z,21.15
2017-04-18T08:21:43.825Z,21.17
2017-04-18T08:22:43.758Z,21.21
2017-04-18T08:23:43.714Z,21.2
2017-04-18T08:24:43.328Z,21.24
2017-04-18T08:25:43.570Z,21.15
2017-04-18T08:26:43.504Z,21.15
2017-04-18T08:27:43.133Z,21.11
2017-04-18T08:28:43.392Z,21.18
2017-04-18T08:29:43.309Z,21.14
2017-04-18T08:30:42.948Z,21.11
2017-04-18T08:31:43.181Z,21.2
2017-04-18T08:32:42.814Z,21.15
2017-04-18T08:33:42.753Z,21.14
2017-04-18T08:34:42.687Z,21.14
2017-04-18T08:35:42.619Z,21.14
2017-04-18T08:36:42.860Z,21.25
2017-04-18T08:37:42.798Z,21.24
2017-04-18T08:38:42.740Z,21.21
2017-04-18T08:39:42.363Z,21.3
2017-04-18T08:40:42.605Z,21.3
2017-04-18T08:41:42.537Z,21.29
2017-04-18T08:42:42.472Z,21.25
2017-04-18T08:43:42.679Z,21.3
2017-04-18T08:44:42.347Z,21.29
2017-04-18T08:45:41.986Z,21.3
2017-04-18T08:46:41.924Z,21.3
2017-04-18T08:47:42.159Z,21.33
2017-04-18T08:48:42.092Z,21.32
2017-04-18T08:49:42.028Z,21.35
2017-04-18T08:50:41.656Z,21.32
2017-04-18T08:51:41.591Z,21.32
2017-04-18T08:52:41.830Z,21.37
2017-04-18T08:53:41.167Z,21.39
2017-04-18T08:54:41.102Z,21.37
2017-04-18T08:55:41.453Z,21.46
2017-04-18T08:56:41.271Z,21.48
2017-04-18T08:57:40.916Z,21.46
2017-04-18T08:58:41.154Z,21.4
2017-04-18T08:59:41.381Z,21.43
2017-04-18T09:00:41.417Z,21.42
2017-04-18T09:01:40.951Z,21.5
2017-04-18T09:02:41.193Z,21.5
2017-04-18T09:03:40.825Z,21.4
2017-04-18T09:04:41.060Z,21.48
2017-04-18T09:05:41.297Z,21.51
2017-04-18T09:06:40.630Z,21.51
2017-04-18T09:07:40.869Z,21.51
2017-04-18T09:08:40.808Z,21.57
2017-04-18T09:09:40.138Z,21.5
2017-04-18T09:10:40.330Z,21.46
2017-04-18T09:11:40.616Z,21.5
2017-04-18T09:12:40.549Z,21.48
2017-04-18T09:13:40.483Z,21.62
2017-04-18T09:14:40.446Z,21.48
2017-04-18T09:15:40.358Z,21.61
2017-04-18T09:16:39.990Z,21.6
2017-04-18T09:17:40.231Z,21.64
2017-04-18T09:18:40.178Z,21.62
2017-04-18T09:19:40.231Z,21.62
2017-04-18T09:20:40.038Z,21.64
2017-04-18T09:21:39.673Z,21.64
2017-04-18T09:22:39.911Z,21.61
2017-04-18T09:23:39.844Z,21.61
2017-04-18T09:24:39.479Z,21.57
2017-04-18T09:25:39.716Z,21.72
2017-04-18T09:26:39.652Z,21.67
2017-04-18T09:27:39.589Z,21.64
2017-04-18T09:28:39.714Z,21.62
2017-04-18T09:29:39.463Z,21.64
2017-04-18T09:30:39.396Z,21.61
2017-04-18T09:31:39.362Z,21.66
2017-04-18T09:32:39.274Z,21.61
2017-04-18T09:33:39.209Z,21.66
2017-04-18T09:34:38.539Z,21.67
2017-04-18T09:35:38.774Z,21.73
2017-04-18T09:36:38.722Z,21.7
2017-04-18T09:37:38.953Z,21.79
2017-04-18T09:38:38.903Z,21.77
2017-04-18T09:39:38.822Z,21.66
2017-04-18T09:40:38.758Z,21.77
2017-04-18T09:41:38.413Z,21.77
2017-04-18T09:42:38.630Z,21.75
2017-04-18T09:43:38.571Z,21.67
2017-04-18T09:44:38.533Z,21.75
2017-04-18T09:45:38.568Z,21.7
2017-04-18T09:46:38.454Z,21.69
2017-04-18T09:47:38.031Z,21.69
2017-04-18T09:48:38.287Z,21.73
2017-04-18T09:49:37.888Z,21.77
2017-04-18T09:50:38.223Z,21.83
2017-04-18T09:51:37.752Z,21.73
2017-04-18T09:52:37.989Z,21.7
2017-04-18T09:53:37.927Z,21.76
2017-04-18T09:54:37.863Z,21.69
2017-04-18T09:55:37.753Z,21.79
2017-04-18T09:56:37.735Z,21.79
2017-04-18T09:57:37.672Z,21.79
2017-04-18T09:58:37.305Z,21.79
2017-04-18T09:59:37.544Z,21.79
2017-04-18T10:00:37.412Z,21.85
2017-04-18T10:01:37.417Z,21.85
2017-04-18T10:02:37.354Z,21.82
2017-04-18T10:03:37.061Z,21.8
2017-04-18T10:04:37.343Z,21.85
2017-04-18T10:05:37.163Z,21.89
2017-04-18T10:06:37.096Z,21.82
2017-04-18T10:07:37.035Z,21.8
2017-04-18T10:08:36.671Z,21.76
2017-04-18T10:09:36.907Z,21.76
2017-04-18T10:10:36.844Z,21.77
2017-04-18T10:11:36.802Z,21.79
2017-04-18T10:12:36.718Z,21.8
2017-04-18T10:13:36.350Z,21.85
2017-04-18T10:14:36.587Z,21.88
2017-04-18T10:15:36.526Z,21.8
2017-04-18T10:16:36.464Z,21.82
2017-04-18T10:17:36.092Z,21.89
2017-04-18T10:18:36.334Z,21.79
2017-04-18T10:19:36.270Z,21.82
2017-04-18T10:20:36.410Z,21.8
2017-04-18T10:21:36.295Z,21.76
2017-04-18T10:22:36.228Z,21.79
2017-04-18T10:23:36.020Z,21.89
2017-04-18T10:24:35.653Z,21.89
2017-04-18T10:25:35.896Z,21.91
2017-04-18T10:26:35.835Z,21.91
2017-04-18T10:27:35.807Z,21.89
2017-04-18T10:28:35.699Z,21.93
2017-04-18T10:29:35.631Z,21.85
2017-04-18T10:30:35.653Z,21.79
2017-04-18T10:31:35.506Z,21.88
2017-04-18T10:32:35.648Z,21.89
2017-04-18T10:33:34.775Z,21.91
2017-04-18T10:34:35.313Z,21.91
2017-04-18T10:35:35.257Z,21.85
2017-04-18T10:36:35.186Z,21.88
2017-04-18T10:37:35.123Z,21.89
2017-04-18T10:38:34.758Z,21.88
2017-04-18T10:39:34.693Z,21.8
2017-04-18T10:40:35.165Z,21.98
2017-04-18T10:41:34.569Z,21.82
2017-04-18T10:42:34.810Z,21.8
2017-04-18T10:43:34.748Z,21.91
2017-04-18T10:44:34.679Z,21.85
2017-04-18T10:45:34.616Z,21.82
2017-04-18T10:46:34.246Z,21.8
2017-04-18T10:47:34.490Z,21.89
2017-04-18T10:48:33.819Z,21.92
2017-04-18T10:49:33.756Z,21.85
2017-04-18T10:50:34.297Z,21.91
2017-04-18T10:51:34.235Z,21.88
2017-04-18T10:52:34.168Z,21.88
2017-04-18T10:53:33.810Z,21.91
2017-04-18T10:54:33.742Z,21.89
2017-04-18T10:55:33.983Z,21.92
2017-04-18T10:56:33.920Z,21.91
2017-04-18T10:57:33.853Z,21.88
2017-04-18T10:58:33.795Z,21.91
2017-04-18T10:59:33.741Z,21.85
2017-04-18T11:00:33.360Z,21.93
2017-04-18T11:01:33.299Z,21.93
2017-04-18T11:02:33.540Z,21.85
2017-04-18T11:03:33.524Z,21.92
2017-04-18T11:04:32.815Z,21.93
2017-04-18T11:05:33.350Z,21.89
2017-04-18T11:06:33.018Z,21.89
2017-04-18T11:07:33.243Z,21.88
2017-04-18T11:08:32.854Z,21.82
2017-04-18T11:09:32.800Z,21.88
2017-04-18T11:10:33.037Z,21.91
2017-04-18T11:11:32.971Z,21.89
2017-04-18T11:12:32.902Z,21.79
2017-04-18T11:13:32.535Z,21.85
2017-04-18T11:14:32.469Z,21.89
2017-04-18T11:15:32.806Z,21.89
2017-04-18T11:16:32.643Z,21.88
2017-04-18T11:17:32.289Z,21.91
2017-04-18T11:18:32.232Z,21.89
2017-04-18T11:19:32.167Z,21.89
2017-04-18T11:20:32.202Z,21.92
2017-04-18T11:21:32.022Z,21.89
2017-04-18T11:22:31.982Z,21.95
2017-04-18T11:23:32.206Z,21.96
2017-04-18T11:24:31.559Z,21.89
2017-04-18T11:25:31.930Z,21.88
2017-04-18T11:26:32.017Z,21.96
2017-04-18T11:27:31.651Z,21.92
2017-04-18T11:28:31.584Z,21.88
2017-04-18T11:29:31.830Z,21.93
2017-04-18T11:30:31.464Z,21.91
2017-04-18T11:31:31.696Z,21.91
2017-04-18T11:32:31.626Z,21.88
2017-04-18T11:33:31.577Z,21.89
2017-04-18T11:34:31.522Z,21.92
2017-04-18T11:35:31.137Z,21.91
2017-04-18T11:36:31.072Z,21.89
2017-04-18T11:37:31.022Z,21.93
2017-04-18T11:38:31.246Z,21.93
2017-04-18T11:39:31.211Z,21.93
2017-04-18T11:40:31.146Z,21.96
2017-04-18T11:41:31.055Z,22
2017-04-18T11:42:30.990Z,21.95
2017-04-18T11:43:30.626Z,21.92
2017-04-18T11:44:30.869Z,21.95
2017-04-18T11:45:30.800Z,21.95
2017-04-18T11:46:30.745Z,21.95
2017-04-18T11:47:30.681Z,21.91
2017-04-18T11:48:30.611Z,21.89
2017-04-18T11:49:30.544Z,21.85
2017-04-18T11:50:30.484Z,21.91
2017-04-18T11:51:30.421Z,21.92
2017-04-18T11:52:30.356Z,21.91
2017-04-18T11:53:29.992Z,21.95
2017-04-18T11:54:30.228Z,21.96
2017-04-18T11:55:30.312Z,21.88
2017-04-18T11:56:30.102Z,21.89
2017-04-18T11:57:30.038Z,21.96
2017-04-18T11:58:29.995Z,21.93
2017-04-18T11:59:29.910Z,21.85
2017-04-18T12:00:29.247Z,21.91
2017-04-18T12:01:29.790Z,21.89
2017-04-18T12:02:29.720Z,21.93
2017-04-18T12:03:29.654Z,21.99
2017-04-18T12:04:29.635Z,22.06
2017-04-18T12:05:29.540Z,22.02
2017-04-18T12:06:29.466Z,22.11
2017-04-18T12:07:29.111Z,22.13
2017-04-18T12:08:29.359Z,21.99
2017-04-18T12:09:28.981Z,22.15
2017-04-18T12:10:29.214Z,22.2
2017-04-18T12:11:29.161Z,22.13
2017-04-18T12:12:29.097Z,22.17
2017-04-18T12:13:28.725Z,22.17
2017-04-18T12:14:28.967Z,22.2
2017-04-18T12:15:28.893Z,22.22
2017-04-18T12:16:28.830Z,22.2
2017-04-18T12:17:28.463Z,22.2
2017-04-18T12:18:28.730Z,22.29
2017-04-18T12:19:28.637Z,22.29
2017-04-18T12:20:28.576Z,22.33
2017-04-18T12:21:28.516Z,22.2
2017-04-18T12:22:28.451Z,22.32
2017-04-18T12:23:28.395Z,22.23
2017-04-18T12:24:28.321Z,22.23
2017-04-18T12:25:28.437Z,22.26
2017-04-18T12:26:28.225Z,22.38
2017-04-18T12:27:28.174Z,22.35
2017-04-18T12:28:27.784Z,22.35
2017-04-18T12:29:28.010Z,22.41
2017-04-18T12:30:28.460Z,22.41
2017-04-18T12:31:27.877Z,22.36
2017-04-18T12:32:27.561Z,22.36
2017-04-18T12:33:27.223Z,22.41
2017-04-18T12:34:27.691Z,22.39
2017-04-18T12:35:27.019Z,22.45
2017-04-18T12:36:27.562Z,22.41
2017-04-18T12:37:26.912Z,22.45
2017-04-18T12:38:27.289Z,22.45
2017-04-18T12:39:26.776Z,22.5
2017-04-18T12:40:27.010Z,22.5
2017-04-18T12:41:26.704Z,22.48
2017-04-18T12:42:27.265Z,22.47
2017-04-18T12:43:27.281Z,22.54
2017-04-18T12:44:27.060Z,22.5
2017-04-18T12:45:27.000Z,22.53
2017-04-18T12:46:26.637Z,22.54
2017-04-18T12:47:26.265Z,22.55
2017-04-18T12:48:26.414Z,22.5
2017-04-18T12:49:26.769Z,22.57
2017-04-18T12:50:26.698Z,22.6
2017-04-18T12:51:26.313Z,22.53
2017-04-18T12:52:25.949Z,22.59
2017-04-18T12:53:26.488Z,22.65
2017-04-18T12:54:26.464Z,22.59
2017-04-18T12:55:26.364Z,22.66
2017-04-18T12:56:26.302Z,22.57